Terminal Aerodrome Forecast
Issued by NWS Lubbock, TX

Home | Current Version | Previous Version | Text Only | Print | Product List | Glossary On
Versions: 1 2 3 4 5 6 7 8 9 10 11 12
000
FTUS44 KLUB 291125
TAFLBB
TAF
KLBB 291125Z 2912/3012 27011KT P6SM SKC
     FM291500 32016G23KT P6SM SKC
     FM291700 01020G30KT P6SM FEW250
     FM300100 05010KT P6SM SCT250=

USA.gov is the U.S. government's official web portal to all federal, state and local government web resources and services.